createdAt,value
2022-09-05T00:01:55.644Z,20.20
2022-09-05T00:05:13.296Z,20.10
2022-09-05T00:08:00.256Z,20.10
2022-09-05T00:11:39.693Z,20.10
2022-09-05T00:14:57.305Z,20.10
2022-09-05T00:18:45.491Z,20.10
2022-09-05T00:24:34.560Z,20.10
2022-09-05T00:24:37.607Z,20.20
2022-09-05T00:27:16.088Z,20.20
2022-09-05T00:31:07.224Z,20.20
2022-09-05T00:33:22.954Z,20.20
2022-09-05T00:35:53.031Z,20.30
2022-09-05T00:38:32.080Z,20.30
2022-09-05T00:41:10.466Z,20.30
2022-09-05T00:43:44.591Z,20.30
2022-09-05T00:46:29.247Z,20.30
2022-09-05T00:49:17.904Z,20.60
2022-09-05T00:52:08.232Z,20.30
2022-09-05T00:55:13.985Z,20.30
2022-09-05T00:58:14.179Z,20.20
2022-09-05T01:00:46.236Z,20.20
2022-09-05T01:03:25.423Z,20.20
2022-09-05T01:06:11.702Z,20.20
2022-09-05T01:09:08.004Z,20.10
2022-09-05T01:11:54.945Z,20.20
2022-09-05T01:14:40.463Z,20.10
2022-09-05T01:17:38.392Z,20.00
2022-09-05T01:20:43.760Z,20.00
2022-09-05T01:23:22.444Z,20.00
2022-09-05T01:26:07.492Z,19.90
2022-09-05T01:29:19.674Z,19.90
2022-09-05T01:32:15.335Z,19.80
2022-09-05T01:35:42.296Z,19.80
2022-09-05T01:40:10.577Z,19.70
2022-09-05T01:41:58.279Z,19.60
2022-09-05T01:44:51.158Z,19.50
2022-09-05T01:47:29.635Z,19.50
2022-09-05T01:50:27.749Z,19.50
2022-09-05T01:53:21.318Z,19.40
2022-09-05T01:56:15.491Z,19.30
2022-09-05T01:58:54.159Z,19.30
2022-09-05T02:01:32.433Z,19.20
2022-09-05T02:04:48.148Z,19.20
2022-09-05T02:07:53.804Z,19.20
2022-09-05T02:10:48.339Z,19.10
2022-09-05T02:13:33.916Z,19.10
2022-09-05T02:16:15.959Z,19.00
2022-09-05T02:19:07.603Z,19.00
2022-09-05T02:21:36.729Z,18.90
2022-09-05T02:24:35.658Z,18.90
2022-09-05T02:27:31.506Z,18.90
2022-09-05T02:30:12.667Z,18.90
2022-09-05T02:32:46.914Z,18.80
2022-09-05T02:35:31.851Z,18.80
2022-09-05T02:40:53.531Z,18.80
2022-09-05T02:45:12.796Z,18.70
2022-09-05T02:45:15.039Z,18.70
2022-09-05T02:47:15.806Z,18.70
2022-09-05T02:53:21.748Z,18.70
2022-09-05T02:57:34.885Z,18.70
2022-09-05T02:57:42.651Z,18.70
2022-09-05T02:59:39.121Z,18.70
2022-09-05T03:02:25.307Z,18.70
2022-09-05T03:05:28.949Z,18.70
2022-09-05T03:08:11.084Z,18.70
2022-09-05T03:11:08.521Z,18.70
2022-09-05T03:13:55.624Z,18.70
2022-09-05T03:16:31.683Z,18.60
2022-09-05T03:19:15.623Z,18.60
2022-09-05T03:22:37.383Z,18.60
2022-09-05T03:25:19.193Z,18.60
2022-09-05T03:28:34.408Z,18.50
2022-09-05T03:31:25.106Z,18.50
2022-09-05T03:34:19.667Z,18.90
2022-09-05T03:37:25.897Z,18.40
2022-09-05T03:40:31.237Z,18.40
2022-09-05T03:43:21.271Z,18.40
2022-09-05T03:46:36.536Z,18.40
2022-09-05T03:52:58.384Z,18.40
2022-09-05T03:57:12.694Z,18.30
2022-09-05T03:57:16.514Z,18.30
2022-09-05T03:58:57.085Z,18.30
2022-09-05T04:02:40.383Z,18.30
2022-09-05T04:08:13.436Z,18.20
2022-09-05T04:08:20.497Z,18.20
2022-09-05T04:10:55.081Z,18.30
2022-09-05T04:13:33.684Z,18.20
2022-09-05T04:16:21.905Z,18.20
2022-09-05T04:19:15.512Z,18.10
2022-09-05T04:22:00.169Z,18.10
2022-09-05T04:24:55.334Z,18.10
2022-09-05T04:27:28.907Z,18.10
2022-09-05T04:30:00.224Z,17.40
2022-09-05T04:32:57.483Z,18.10
2022-09-05T04:35:38.222Z,18.10
2022-09-05T04:38:17.322Z,18.10
2022-09-05T04:40:56.265Z,18.10
2022-09-05T04:43:34.150Z,18.10
2022-09-05T04:46:09.414Z,18.20
2022-09-05T04:49:00.159Z,18.20
2022-09-05T04:52:02.877Z,18.20
2022-09-05T04:54:50.570Z,18.20
2022-09-05T04:57:31.664Z,18.30
2022-09-05T05:06:03.161Z,18.40
2022-09-05T05:06:15.110Z,18.40
2022-09-05T05:06:43.890Z,18.50
2022-09-05T05:09:26.952Z,18.60
2022-09-05T05:17:56.692Z,18.80
2022-09-05T05:18:01.161Z,18.70
2022-09-05T05:18:12.787Z,18.80
2022-09-05T05:21:10.915Z,18.80
2022-09-05T05:23:57.226Z,18.90
2022-09-05T05:26:36.721Z,18.90
2022-09-05T05:29:23.312Z,18.90
2022-09-05T05:31:54.099Z,19.00
2022-09-05T05:37:33.611Z,19.10
2022-09-05T05:40:11.112Z,19.10
2022-09-05T05:42:40.596Z,19.10
2022-09-05T05:45:27.678Z,19.10
2022-09-05T05:48:06.692Z,19.20
2022-09-05T05:51:03.272Z,19.30
2022-09-05T05:53:43.674Z,19.40
2022-09-05T05:56:35.154Z,19.40
2022-09-05T05:59:57.568Z,19.50
2022-09-05T06:03:25.691Z,19.70
2022-09-05T06:06:05.503Z,19.90
2022-09-05T06:12:09.675Z,20.30
2022-09-05T06:14:50.671Z,20.70
2022-09-05T06:15:10.271Z,21.40
2022-09-05T06:18:07.475Z,22.20
2022-09-05T06:22:09.468Z,22.50
2022-09-05T06:23:54.762Z,22.80
2022-09-05T06:27:05.849Z,23.00
2022-09-05T06:29:49.039Z,23.80
2022-09-05T06:32:41.796Z,24.90
2022-09-05T06:35:45.414Z,25.70
2022-09-05T06:38:23.851Z,26.70
2022-09-05T06:41:20.646Z,26.70
2022-09-05T06:43:56.313Z,26.40
2022-09-05T06:46:54.267Z,26.80
2022-09-05T06:49:56.250Z,27.70
2022-09-05T06:52:46.050Z,27.80
2022-09-05T06:55:25.329Z,28.40
2022-09-05T06:58:26.274Z,29.00
2022-09-05T07:00:55.606Z,28.90
2022-09-05T07:03:41.051Z,29.60
2022-09-05T07:07:01.096Z,30.60
2022-09-05T07:09:40.341Z,32.00
2022-09-05T07:12:30.734Z,33.20
2022-09-05T07:15:29.575Z,33.70
2022-09-05T07:18:11.233Z,33.00
2022-09-05T07:21:16.653Z,31.90
2022-09-05T07:24:05.748Z,30.70
2022-09-05T07:26:52.331Z,29.80
2022-09-05T07:29:36.915Z,29.10
2022-09-05T07:32:07.080Z,28.50
2022-09-05T07:34:37.138Z,28.10
2022-09-05T07:37:14.960Z,27.70
2022-09-05T07:40:25.432Z,27.50
2022-09-05T07:43:18.842Z,27.30
2022-09-05T07:46:02.190Z,27.00
2022-09-05T07:48:34.872Z,26.70
2022-09-05T07:56:39.224Z,26.50
2022-09-05T07:57:09.200Z,26.40
2022-09-05T07:59:45.172Z,26.30
2022-09-05T08:02:13.514Z,26.20
2022-09-05T08:04:42.074Z,26.10
2022-09-05T08:07:48.802Z,26.10
2022-09-05T08:10:18.567Z,26.00
2022-09-05T08:13:23.939Z,25.90
2022-09-05T08:16:11.075Z,25.80
2022-09-05T08:18:54.326Z,25.80
2022-09-05T08:21:42.427Z,25.90
2022-09-05T08:24:29.575Z,25.90
2022-09-05T08:27:16.012Z,26.00
2022-09-05T08:30:24.603Z,26.00
2022-09-05T08:33:11.040Z,26.10
2022-09-05T08:36:01.050Z,26.10
2022-09-05T08:38:37.359Z,26.10
2022-09-05T08:41:15.479Z,26.10
2022-09-05T08:46:40.509Z,26.10
2022-09-05T08:47:45.028Z,26.10
2022-09-05T08:50:31.665Z,26.20
2022-09-05T08:53:28.169Z,26.20
2022-09-05T08:56:22.964Z,26.30
2022-09-05T08:59:28.291Z,26.40
2022-09-05T09:02:44.900Z,26.60
2022-09-05T09:05:21.060Z,26.70
2022-09-05T09:08:13.047Z,26.70
2022-09-05T09:10:57.413Z,26.70
2022-09-05T09:13:37.882Z,26.80
2022-09-05T09:16:25.046Z,26.90
2022-09-05T09:18:51.988Z,26.90
2022-09-05T09:21:35.746Z,27.00
2022-09-05T09:24:14.223Z,26.90
2022-09-05T09:26:57.418Z,26.70
2022-09-05T09:29:25.449Z,26.70
2022-09-05T09:32:25.225Z,26.70
2022-09-05T09:35:01.626Z,26.80
2022-09-05T09:37:59.412Z,26.80
2022-09-05T09:40:26.685Z,26.90
2022-09-05T09:43:14.355Z,27.00
2022-09-05T09:46:01.943Z,27.00
2022-09-05T09:48:43.870Z,27.10
2022-09-05T09:51:41.596Z,27.20
2022-09-05T09:54:42.650Z,27.20
2022-09-05T09:57:28.650Z,27.30
2022-09-05T10:00:11.877Z,27.30
2022-09-05T10:10:05.969Z,27.50
2022-09-05T10:11:08.156Z,27.90
2022-09-05T10:11:09.483Z,27.70
2022-09-05T10:13:42.392Z,28.00
2022-09-05T10:16:24.287Z,28.10
2022-09-05T10:18:56.772Z,28.10
2022-09-05T10:25:19.049Z,28.20
2022-09-05T10:28:28.396Z,28.30
2022-09-05T10:32:50.619Z,28.40
2022-09-05T10:35:13.893Z,28.40
2022-09-05T10:37:05.750Z,28.50
2022-09-05T10:39:35.573Z,28.40
2022-09-05T10:42:08.838Z,28.30
2022-09-05T10:44:48.133Z,28.30
2022-09-05T10:47:31.065Z,28.30
2022-09-05T10:50:30.668Z,28.30
2022-09-05T10:53:00.359Z,28.30
2022-09-05T10:55:50.542Z,28.20
2022-09-05T11:00:56.442Z,28.20
2022-09-05T11:02:28.496Z,28.20
2022-09-05T11:04:49.941Z,28.10
2022-09-05T11:07:42.134Z,28.10
2022-09-05T11:10:24.461Z,28.10
2022-09-05T11:13:01.289Z,28.10
2022-09-05T11:15:31.186Z,28.20
2022-09-05T11:18:05.827Z,28.20
2022-09-05T11:20:44.791Z,28.20
2022-09-05T11:23:18.202Z,28.20
2022-09-05T11:25:47.803Z,28.20
2022-09-05T11:28:30.773Z,28.20
2022-09-05T11:31:02.232Z,28.20
2022-09-05T11:39:48.595Z,28.20
2022-09-05T11:39:58.278Z,28.20
2022-09-05T11:40:28.448Z,28.20
2022-09-05T11:42:53.133Z,28.20
2022-09-05T11:45:51.075Z,28.10
2022-09-05T11:48:28.491Z,28.10
2022-09-05T11:51:10.665Z,28.20
2022-09-05T11:54:01.402Z,28.20
2022-09-05T11:56:41.944Z,28.20
2022-09-05T11:59:15.772Z,28.30
2022-09-05T12:02:17.076Z,28.30
2022-09-05T12:05:48.855Z,28.30
2022-09-05T12:08:41.401Z,28.40
2022-09-05T12:11:25.531Z,28.50
2022-09-05T12:14:30.627Z,28.40
2022-09-05T12:17:35.604Z,28.40
2022-09-05T12:20:33.683Z,28.40
2022-09-05T12:23:54.032Z,28.40
2022-09-05T12:27:42.634Z,28.30
2022-09-05T12:29:35.543Z,28.40
2022-09-05T12:34:18.766Z,28.40
2022-09-05T12:36:07.377Z,28.40
2022-09-05T12:41:01.066Z,28.50
2022-09-05T12:41:37.436Z,28.50
2022-09-05T12:44:38.705Z,28.60
2022-09-05T12:46:45.754Z,28.60
2022-09-05T12:49:36.363Z,28.50
2022-09-05T12:52:17.622Z,28.50
2022-09-05T12:54:51.766Z,28.60
2022-09-05T13:02:02.879Z,28.60
2022-09-05T13:03:02.134Z,28.60
2022-09-05T13:03:28.007Z,28.60
2022-09-05T13:06:25.693Z,28.50
2022-09-05T13:09:01.535Z,28.50
2022-09-05T13:14:53.766Z,28.50
2022-09-05T13:15:01.060Z,28.50
2022-09-05T13:17:16.624Z,28.60
2022-09-05T13:19:51.719Z,28.60
2022-09-05T13:22:22.001Z,28.70
2022-09-05T13:24:58.858Z,28.60
2022-09-05T13:27:31.738Z,28.60
2022-09-05T13:32:58.873Z,28.70
2022-09-05T13:38:01.011Z,28.60
2022-09-05T13:38:20.158Z,28.60
2022-09-05T13:39:14.231Z,28.50
2022-09-05T13:41:50.822Z,28.50
2022-09-05T13:44:26.402Z,28.60
2022-09-05T13:47:02.627Z,28.60
2022-09-05T13:49:56.909Z,28.60
2022-09-05T13:52:37.840Z,28.70
2022-09-05T13:55:17.268Z,28.60
2022-09-05T13:57:51.142Z,28.70
2022-09-05T14:00:28.166Z,28.70
2022-09-05T14:03:40.526Z,28.70
2022-09-05T14:06:46.928Z,28.70
2022-09-05T14:09:58.574Z,28.80
2022-09-05T14:12:47.747Z,28.70
2022-09-05T14:15:25.008Z,28.70
2022-09-05T14:18:20.179Z,28.70
2022-09-05T14:21:17.365Z,28.70
2022-09-05T14:23:57.592Z,28.70
2022-09-05T14:26:30.852Z,28.70
2022-09-05T14:29:03.936Z,28.70
2022-09-05T14:36:33.481Z,28.70
2022-09-05T14:37:45.590Z,28.80
2022-09-05T14:38:04.354Z,28.80
2022-09-05T14:40:56.798Z,28.80
2022-09-05T14:43:56.867Z,28.80
2022-09-05T14:46:38.553Z,28.90
2022-09-05T14:49:35.923Z,28.80
2022-09-05T14:52:20.389Z,28.90
2022-09-05T15:02:38.280Z,29.00
2022-09-05T15:02:52.510Z,28.90
2022-09-05T15:06:39.203Z,28.80
2022-09-05T15:11:24.029Z,28.80
2022-09-05T15:12:26.337Z,28.80
2022-09-05T15:15:20.117Z,28.80
2022-09-05T15:17:51.869Z,28.80
2022-09-05T15:20:33.221Z,28.80
2022-09-05T15:23:05.660Z,28.70
2022-09-05T15:25:49.555Z,28.70
2022-09-05T15:28:30.201Z,28.70
2022-09-05T15:31:00.226Z,28.70
2022-09-05T15:33:29.993Z,28.80
2022-09-05T15:35:58.339Z,28.90
2022-09-05T15:38:46.315Z,29.00
2022-09-05T15:41:25.301Z,29.10
2022-09-05T15:44:01.698Z,29.20
2022-09-05T15:46:38.146Z,29.20
2022-09-05T15:49:11.404Z,29.20
2022-09-05T15:51:51.072Z,29.30
2022-09-05T15:54:37.600Z,29.30
2022-09-05T15:57:09.057Z,29.20
2022-09-05T15:59:48.131Z,29.10
2022-09-05T16:02:23.819Z,29.10
2022-09-05T16:10:28.408Z,28.90
2022-09-05T16:10:41.285Z,28.90
2022-09-05T16:12:07.327Z,28.90
2022-09-05T16:14:39.637Z,28.70
2022-09-05T16:23:12.304Z,28.60
2022-09-05T16:23:33.321Z,28.60
2022-09-05T16:23:42.849Z,28.50
2022-09-05T16:26:26.814Z,28.30
2022-09-05T16:29:05.443Z,28.20
2022-09-05T16:31:48.325Z,28.10
2022-09-05T16:34:47.399Z,28.00
2022-09-05T16:37:26.272Z,27.90
2022-09-05T16:40:11.718Z,27.80
2022-09-05T16:42:51.188Z,27.70
2022-09-05T16:45:36.451Z,27.60
2022-09-05T16:48:03.433Z,27.50
2022-09-05T16:50:48.089Z,27.40
2022-09-05T16:53:38.845Z,27.40
2022-09-05T16:56:38.616Z,27.30
2022-09-05T16:59:22.524Z,27.30
2022-09-05T17:02:09.548Z,27.30
2022-09-05T17:05:11.455Z,27.30
2022-09-05T17:08:06.178Z,27.20
2022-09-05T17:11:03.616Z,27.10
2022-09-05T17:13:39.986Z,27.00
2022-09-05T17:16:10.823Z,27.00
2022-09-05T17:18:39.073Z,26.90
2022-09-05T17:21:12.700Z,26.90
2022-09-05T17:29:16.588Z,26.80
2022-09-05T17:29:25.564Z,26.80
2022-09-05T17:32:47.214Z,26.70
2022-09-05T17:35:23.165Z,26.60
2022-09-05T17:38:10.250Z,26.50
2022-09-05T17:41:15.345Z,26.40
2022-09-05T17:43:42.535Z,26.30
2022-09-05T17:46:28.904Z,26.10
2022-09-05T17:49:19.999Z,26.00
2022-09-05T17:51:53.427Z,26.00
2022-09-05T17:54:31.856Z,25.90
2022-09-05T17:57:27.745Z,25.80
2022-09-05T17:59:55.734Z,25.80
2022-09-05T18:02:23.928Z,25.70
2022-09-05T18:04:53.096Z,25.70
2022-09-05T18:07:19.930Z,25.70
2022-09-05T18:10:07.534Z,25.70
2022-09-05T18:13:13.258Z,25.70
2022-09-05T18:15:32.518Z,25.60
2022-09-05T18:18:03.864Z,24.90
2022-09-05T18:20:39.741Z,24.50
2022-09-05T18:23:18.009Z,23.80
2022-09-05T18:26:22.907Z,23.10
2022-09-05T18:28:52.699Z,22.40
2022-09-05T18:31:41.938Z,21.80
2022-09-05T18:34:15.820Z,21.30
2022-09-05T18:36:51.844Z,21.10
2022-09-05T18:39:28.048Z,20.80
2022-09-05T18:42:33.118Z,20.60
2022-09-05T18:45:16.145Z,20.20
2022-09-05T18:47:59.024Z,19.90
2022-09-05T18:50:34.452Z,19.70
2022-09-05T18:53:10.721Z,19.60
2022-09-05T18:56:11.617Z,19.40
2022-09-05T18:58:52.911Z,19.20
2022-09-05T19:01:48.822Z,19.10
2022-09-05T19:04:53.321Z,19.10
2022-09-05T19:07:32.174Z,19.20
2022-09-05T19:10:35.188Z,19.20
2022-09-05T19:13:01.559Z,19.10
2022-09-05T19:15:42.555Z,19.20
2022-09-05T19:18:36.834Z,19.20
2022-09-05T19:21:13.485Z,19.20
2022-09-05T19:23:53.186Z,19.30
2022-09-05T19:26:21.754Z,19.30
2022-09-05T19:36:49.317Z,19.40
2022-09-05T19:37:04.209Z,19.50
2022-09-05T19:37:08.545Z,19.50
2022-09-05T19:37:40.951Z,19.60
2022-09-05T19:43:36.270Z,19.70
2022-09-05T19:47:34.815Z,19.80
2022-09-05T19:47:50.994Z,19.70
2022-09-05T19:48:34.370Z,19.80
2022-09-05T20:00:01.431Z,19.90
2022-09-05T20:02:33.079Z,19.90
2022-09-05T20:05:03.183Z,20.00
2022-09-05T20:07:32.075Z,20.10
2022-09-05T20:10:01.450Z,20.10
2022-09-05T20:12:37.457Z,20.20
2022-09-05T20:15:37.222Z,20.30
2022-09-05T20:18:25.740Z,20.40
2022-09-05T20:20:59.569Z,20.40
2022-09-05T20:23:28.949Z,20.50
2022-09-05T20:25:58.017Z,20.50
2022-09-05T20:28:30.826Z,20.60
2022-09-05T20:31:08.440Z,20.60
2022-09-05T20:33:51.861Z,20.60
2022-09-05T20:43:18.808Z,20.70
2022-09-05T20:43:30.100Z,20.70
2022-09-05T20:43:36.453Z,20.70
2022-09-05T20:45:44.514Z,20.70
2022-09-05T20:50:58.281Z,20.60
2022-09-05T20:54:17.370Z,20.60
2022-09-05T20:54:18.046Z,20.60
2022-09-05T20:56:48.181Z,20.60
2022-09-05T20:59:33.464Z,20.60
2022-09-05T21:02:03.223Z,20.60
2022-09-05T21:04:33.240Z,20.60
2022-09-05T21:07:18.351Z,20.60
2022-09-05T21:09:49.904Z,20.60
2022-09-05T21:12:27.587Z,20.50
2022-09-05T21:15:21.310Z,20.50
2022-09-05T21:17:53.338Z,20.50
2022-09-05T21:20:24.327Z,20.50
2022-09-05T21:22:51.370Z,20.40
2022-09-05T21:25:43.695Z,20.40
2022-09-05T21:28:36.615Z,20.40
2022-09-05T21:31:13.641Z,20.40
2022-09-05T21:33:45.530Z,20.30
2022-09-05T21:36:15.358Z,20.30
2022-09-05T21:38:43.888Z,20.30
2022-09-05T21:41:16.029Z,20.30
2022-09-05T21:47:40.214Z,20.30
2022-09-05T21:47:42.893Z,20.20
2022-09-05T21:49:22.537Z,20.20
2022-09-05T21:51:50.352Z,20.20
2022-09-05T21:59:13.874Z,20.20
2022-09-05T21:59:16.302Z,20.20
2022-09-05T22:00:10.784Z,20.20
2022-09-05T22:02:38.408Z,20.30
2022-09-05T22:05:05.748Z,20.30
2022-09-05T22:07:35.670Z,20.30
2022-09-05T22:10:04.757Z,20.30
2022-09-05T22:12:38.847Z,20.30
2022-09-05T22:15:28.004Z,20.30
2022-09-05T22:18:02.565Z,20.20
2022-09-05T22:20:53.427Z,20.20
2022-09-05T22:23:36.927Z,20.20
2022-09-05T22:26:07.766Z,20.20
2022-09-05T22:28:38.587Z,20.10
2022-09-05T22:31:07.713Z,20.10
2022-09-05T22:33:36.001Z,20.10
2022-09-05T22:36:03.858Z,20.10
2022-09-05T22:38:30.941Z,20.10
2022-09-05T22:40:58.264Z,20.00
2022-09-05T22:43:25.649Z,20.00
2022-09-05T22:45:59.152Z,20.00
2022-09-05T22:48:26.088Z,19.90
2022-09-05T22:50:53.029Z,19.90
2022-09-05T22:53:20.093Z,19.90
2022-09-05T22:55:47.083Z,19.90
2022-09-05T22:58:14.837Z,19.80
2022-09-05T23:00:44.137Z,19.80
2022-09-05T23:03:11.107Z,19.70
2022-09-05T23:05:38.135Z,19.70
2022-09-05T23:08:05.915Z,19.70
2022-09-05T23:10:34.433Z,19.70
2022-09-05T23:13:05.636Z,19.60
2022-09-05T23:15:33.040Z,19.50
2022-09-05T23:18:01.017Z,19.50
2022-09-05T23:20:30.621Z,19.50
2022-09-05T23:23:01.738Z,19.50
2022-09-05T23:25:28.626Z,19.50
2022-09-05T23:27:55.497Z,19.50
2022-09-05T23:30:22.408Z,19.50
2022-09-05T23:32:51.840Z,19.50
2022-09-05T23:35:19.676Z,19.50
2022-09-05T23:37:48.105Z,19.50
2022-09-05T23:40:17.807Z,19.50
2022-09-05T23:43:00.899Z,19.50
2022-09-05T23:45:28.983Z,19.50
2022-09-05T23:47:57.870Z,19.50
2022-09-05T23:50:26.341Z,19.40
2022-09-05T23:52:53.296Z,19.50
2022-09-05T23:55:22.577Z,19.50
2022-09-05T23:57:51.646Z,19.50
